sensor_id;sensor_type;location;lat;lon;timestamp;P1;durP1;ratioP1;P2;durP2;ratioP2
34978;SDS011;21185;50.978;13.720;2023-03-20T00:02:51;2.40;;;1.48;;
34978;SDS011;21185;50.978;13.720;2023-03-20T00:07:53;3.60;;;1.95;;
34978;SDS011;21185;50.978;13.720;2023-03-20T00:12:56;3.72;;;2.00;;
34978;SDS011;21185;50.978;13.720;2023-03-20T00:17:57;3.38;;;1.95;;
34978;SDS011;21185;50.978;13.720;2023-03-20T00:22:59;3.20;;;2.15;;
34978;SDS011;21185;50.978;13.720;2023-03-20T00:28:02;3.28;;;1.70;;
34978;SDS011;21185;50.978;13.720;2023-03-20T00:33:24;5.43;;;2.13;;
34978;SDS011;21185;50.978;13.720;2023-03-20T00:38:27;7.43;;;2.25;;
34978;SDS011;21185;50.978;13.720;2023-03-20T00:43:29;4.45;;;2.00;;
34978;SDS011;21185;50.978;13.720;2023-03-20T00:48:32;3.72;;;1.83;;
34978;SDS011;21185;50.978;13.720;2023-03-20T00:53:34;4.53;;;2.28;;
34978;SDS011;21185;50.978;13.720;2023-03-20T00:58:36;3.25;;;1.83;;
34978;SDS011;21185;50.978;13.720;2023-03-20T01:03:39;2.33;;;1.48;;
34978;SDS011;21185;50.978;13.720;2023-03-20T01:08:43;2.97;;;1.88;;
34978;SDS011;21185;50.978;13.720;2023-03-20T01:13:46;4.55;;;2.42;;
34978;SDS011;21185;50.978;13.720;2023-03-20T01:18:49;5.63;;;2.15;;
34978;SDS011;21185;50.978;13.720;2023-03-20T01:23:51;3.47;;;2.03;;
34978;SDS011;21185;50.978;13.720;2023-03-20T01:28:53;5.38;;;1.70;;
34978;SDS011;21185;50.978;13.720;2023-03-20T01:33:56;3.30;;;1.70;;
34978;SDS011;21185;50.978;13.720;2023-03-20T01:38:58;3.38;;;1.83;;
34978;SDS011;21185;50.978;13.720;2023-03-20T01:44:00;2.47;;;1.52;;
34978;SDS011;21185;50.978;13.720;2023-03-20T01:54:27;3.28;;;1.73;;
34978;SDS011;21185;50.978;13.720;2023-03-20T01:59:43;3.00;;;1.48;;
34978;SDS011;21185;50.978;13.720;2023-03-20T02:04:51;3.42;;;1.83;;
34978;SDS011;21185;50.978;13.720;2023-03-20T02:09:58;5.80;;;2.28;;
34978;SDS011;21185;50.978;13.720;2023-03-20T02:15:12;4.55;;;1.63;;
34978;SDS011;21185;50.978;13.720;2023-03-20T02:31:40;8.70;;;1.75;;
34978;SDS011;21185;50.978;13.720;2023-03-20T03:03:49;2.55;;;1.65;;
34978;SDS011;21185;50.978;13.720;2023-03-20T03:14:20;7.38;;;2.03;;
34978;SDS011;21185;50.978;13.720;2023-03-20T03:19:33;3.03;;;1.60;;
34978;SDS011;21185;50.978;13.720;2023-03-20T03:24:42;3.70;;;1.65;;
34978;SDS011;21185;50.978;13.720;2023-03-20T03:29:54;3.40;;;1.95;;
34978;SDS011;21185;50.978;13.720;2023-03-20T03:34:58;3.33;;;1.73;;
34978;SDS011;21185;50.978;13.720;2023-03-20T03:40:04;1.98;;;1.35;;
34978;SDS011;21185;50.978;13.720;2023-03-20T03:45:22;2.15;;;1.35;;
34978;SDS011;21185;50.978;13.720;2023-03-20T03:50:39;3.58;;;1.50;;
34978;SDS011;21185;50.978;13.720;2023-03-20T03:55:53;3.35;;;1.73;;
34978;SDS011;21185;50.978;13.720;2023-03-20T04:01:01;3.55;;;1.90;;
34978;SDS011;21185;50.978;13.720;2023-03-20T04:06:07;3.10;;;1.70;;
34978;SDS011;21185;50.978;13.720;2023-03-20T04:11:14;2.70;;;1.83;;
34978;SDS011;21185;50.978;13.720;2023-03-20T04:16:19;2.92;;;1.63;;
34978;SDS011;21185;50.978;13.720;2023-03-20T04:21:24;1.75;;;1.55;;
34978;SDS011;21185;50.978;13.720;2023-03-20T04:26:26;3.33;;;1.90;;
34978;SDS011;21185;50.978;13.720;2023-03-20T04:31:29;4.68;;;1.23;;
34978;SDS011;21185;50.978;13.720;2023-03-20T04:36:57;6.55;;;1.63;;
34978;SDS011;21185;50.978;13.720;2023-03-20T04:42:16;3.03;;;1.83;;
34978;SDS011;21185;50.978;13.720;2023-03-20T04:47:19;2.33;;;1.45;;
34978;SDS011;21185;50.978;13.720;2023-03-20T04:52:25;2.08;;;1.30;;
34978;SDS011;21185;50.978;13.720;2023-03-20T04:57:27;2.05;;;1.50;;
34978;SDS011;21185;50.978;13.720;2023-03-20T05:02:29;4.82;;;1.77;;
34978;SDS011;21185;50.978;13.720;2023-03-20T05:07:31;3.63;;;1.67;;
34978;SDS011;21185;50.978;13.720;2023-03-20T05:12:37;2.55;;;1.40;;
34978;SDS011;21185;50.978;13.720;2023-03-20T05:18:05;1.77;;;1.35;;
34978;SDS011;21185;50.978;13.720;2023-03-20T05:23:31;2.75;;;1.48;;
34978;SDS011;21185;50.978;13.720;2023-03-20T05:28:57;4.13;;;1.60;;
34978;SDS011;21185;50.978;13.720;2023-03-20T05:34:15;2.67;;;1.67;;
34978;SDS011;21185;50.978;13.720;2023-03-20T05:39:33;4.53;;;1.63;;
34978;SDS011;21185;50.978;13.720;2023-03-20T05:45:01;2.63;;;1.67;;
34978;SDS011;21185;50.978;13.720;2023-03-20T05:50:22;2.90;;;1.58;;
34978;SDS011;21185;50.978;13.720;2023-03-20T05:55:31;2.40;;;1.48;;
34978;SDS011;21185;50.978;13.720;2023-03-20T06:00:48;3.40;;;1.83;;
34978;SDS011;21185;50.978;13.720;2023-03-20T06:06:25;2.83;;;1.65;;
34978;SDS011;21185;50.978;13.720;2023-03-20T06:11:27;2.95;;;1.75;;
34978;SDS011;21185;50.978;13.720;2023-03-20T06:16:29;1.60;;;1.05;;
34978;SDS011;21185;50.978;13.720;2023-03-20T06:21:32;6.25;;;1.48;;
34978;SDS011;21185;50.978;13.720;2023-03-20T06:26:35;3.60;;;1.40;;
34978;SDS011;21185;50.978;13.720;2023-03-20T06:31:42;2.63;;;1.40;;
34978;SDS011;21185;50.978;13.720;2023-03-20T06:36:54;3.95;;;1.70;;
34978;SDS011;21185;50.978;13.720;2023-03-20T06:41:57;2.67;;;1.48;;
34978;SDS011;21185;50.978;13.720;2023-03-20T06:47:00;3.10;;;1.88;;
34978;SDS011;21185;50.978;13.720;2023-03-20T06:52:02;2.88;;;1.60;;
34978;SDS011;21185;50.978;13.720;2023-03-20T06:57:06;4.90;;;1.60;;
34978;SDS011;21185;50.978;13.720;2023-03-20T07:02:09;3.58;;;1.45;;
34978;SDS011;21185;50.978;13.720;2023-03-20T07:07:12;2.33;;;1.50;;
34978;SDS011;21185;50.978;13.720;2023-03-20T07:12:15;2.35;;;1.77;;
34978;SDS011;21185;50.978;13.720;2023-03-20T07:17:20;2.13;;;1.42;;
34978;SDS011;21185;50.978;13.720;2023-03-20T07:22:25;2.72;;;1.98;;
34978;SDS011;21185;50.978;13.720;2023-03-20T07:27:44;2.97;;;1.70;;
34978;SDS011;21185;50.978;13.720;2023-03-20T07:32:54;3.78;;;1.80;;
34978;SDS011;21185;50.978;13.720;2023-03-20T07:38:01;3.95;;;1.88;;
34978;SDS011;21185;50.978;13.720;2023-03-20T07:43:04;5.70;;;1.85;;
34978;SDS011;21185;50.978;13.720;2023-03-20T07:48:26;3.15;;;2.00;;
34978;SDS011;21185;50.978;13.720;2023-03-20T07:53:28;2.88;;;2.00;;
34978;SDS011;21185;50.978;13.720;2023-03-20T07:58:30;6.18;;;2.35;;
34978;SDS011;21185;50.978;13.720;2023-03-20T08:03:35;2.75;;;1.95;;
34978;SDS011;21185;50.978;13.720;2023-03-20T08:08:39;3.28;;;2.03;;
34978;SDS011;21185;50.978;13.720;2023-03-20T08:13:42;5.40;;;2.13;;
34978;SDS011;21185;50.978;13.720;2023-03-20T08:18:44;3.33;;;1.83;;
34978;SDS011;21185;50.978;13.720;2023-03-20T08:23:46;3.60;;;1.83;;
34978;SDS011;21185;50.978;13.720;2023-03-20T08:28:48;4.07;;;2.25;;
34978;SDS011;21185;50.978;13.720;2023-03-20T08:33:53;5.70;;;2.60;;
34978;SDS011;21185;50.978;13.720;2023-03-20T08:38:56;4.53;;;2.70;;
34978;SDS011;21185;50.978;13.720;2023-03-20T08:43:58;7.90;;;4.55;;
34978;SDS011;21185;50.978;13.720;2023-03-20T08:49:02;6.00;;;2.90;;
34978;SDS011;21185;50.978;13.720;2023-03-20T08:54:05;7.90;;;3.38;;
34978;SDS011;21185;50.978;13.720;2023-03-20T08:59:08;5.80;;;2.70;;
34978;SDS011;21185;50.978;13.720;2023-03-20T09:04:10;4.47;;;2.58;;
34978;SDS011;21185;50.978;13.720;2023-03-20T09:09:13;6.32;;;3.25;;
34978;SDS011;21185;50.978;13.720;2023-03-20T09:14:16;5.25;;;2.63;;
34978;SDS011;21185;50.978;13.720;2023-03-20T09:19:19;9.43;;;4.10;;
34978;SDS011;21185;50.978;13.720;2023-03-20T09:24:21;9.77;;;3.65;;
34978;SDS011;21185;50.978;13.720;2023-03-20T09:29:23;10.40;;;4.15;;
34978;SDS011;21185;50.978;13.720;2023-03-20T09:34:25;16.33;;;5.47;;
34978;SDS011;21185;50.978;13.720;2023-03-20T09:39:27;14.57;;;6.03;;
34978;SDS011;21185;50.978;13.720;2023-03-20T09:44:37;16.27;;;6.32;;
34978;SDS011;21185;50.978;13.720;2023-03-20T09:49:52;15.55;;;6.78;;
34978;SDS011;21185;50.978;13.720;2023-03-20T09:55:07;14.23;;;5.88;;
34978;SDS011;21185;50.978;13.720;2023-03-20T10:00:16;13.27;;;5.07;;
34978;SDS011;21185;50.978;13.720;2023-03-20T10:05:24;8.68;;;4.68;;
34978;SDS011;21185;50.978;13.720;2023-03-20T10:21:41;11.93;;;5.43;;
34978;SDS011;21185;50.978;13.720;2023-03-20T10:26:47;11.95;;;5.55;;
34978;SDS011;21185;50.978;13.720;2023-03-20T10:31:58;12.90;;;6.27;;
34978;SDS011;21185;50.978;13.720;2023-03-20T10:42:45;18.80;;;6.70;;
34978;SDS011;21185;50.978;13.720;2023-03-20T10:47:49;12.15;;;5.88;;
34978;SDS011;21185;50.978;13.720;2023-03-20T10:52:53;15.65;;;6.25;;
34978;SDS011;21185;50.978;13.720;2023-03-20T11:03:16;12.98;;;6.78;;
34978;SDS011;21185;50.978;13.720;2023-03-20T11:08:23;14.23;;;7.78;;
34978;SDS011;21185;50.978;13.720;2023-03-20T11:13:38;11.90;;;6.20;;
34978;SDS011;21185;50.978;13.720;2023-03-20T11:18:43;14.18;;;6.72;;
34978;SDS011;21185;50.978;13.720;2023-03-20T11:23:45;15.60;;;7.15;;
34978;SDS011;21185;50.978;13.720;2023-03-20T11:39:12;18.55;;;7.45;;
34978;SDS011;21185;50.978;13.720;2023-03-20T11:44:23;15.18;;;6.88;;
34978;SDS011;21185;50.978;13.720;2023-03-20T11:49:33;15.65;;;7.88;;
34978;SDS011;21185;50.978;13.720;2023-03-20T11:54:51;15.75;;;7.97;;
34978;SDS011;21185;50.978;13.720;2023-03-20T11:59:59;15.43;;;7.05;;
34978;SDS011;21185;50.978;13.720;2023-03-20T12:10:41;16.05;;;6.93;;
34978;SDS011;21185;50.978;13.720;2023-03-20T12:16:10;16.98;;;7.65;;
34978;SDS011;21185;50.978;13.720;2023-03-20T12:21:29;15.82;;;7.20;;
34978;SDS011;21185;50.978;13.720;2023-03-20T12:32:02;12.27;;;6.43;;
34978;SDS011;21185;50.978;13.720;2023-03-20T12:37:09;13.38;;;6.68;;
34978;SDS011;21185;50.978;13.720;2023-03-20T13:14:07;15.80;;;7.03;;
34978;SDS011;21185;50.978;13.720;2023-03-20T13:24:47;14.80;;;6.43;;
34978;SDS011;21185;50.978;13.720;2023-03-20T13:35:16;11.50;;;6.07;;
34978;SDS011;21185;50.978;13.720;2023-03-20T13:40:40;15.40;;;6.55;;
34978;SDS011;21185;50.978;13.720;2023-03-20T13:45:44;11.65;;;6.22;;
34978;SDS011;21185;50.978;13.720;2023-03-20T13:50:53;14.98;;;5.82;;
34978;SDS011;21185;50.978;13.720;2023-03-20T13:56:03;13.60;;;6.07;;
34978;SDS011;21185;50.978;13.720;2023-03-20T14:01:22;10.60;;;5.45;;
34978;SDS011;21185;50.978;13.720;2023-03-20T14:11:45;10.32;;;5.72;;
34978;SDS011;21185;50.978;13.720;2023-03-20T14:16:47;14.15;;;6.32;;
34978;SDS011;21185;50.978;13.720;2023-03-20T14:21:49;13.20;;;6.45;;
34978;SDS011;21185;50.978;13.720;2023-03-20T14:26:55;14.13;;;5.80;;
34978;SDS011;21185;50.978;13.720;2023-03-20T14:37:23;7.55;;;4.10;;
34978;SDS011;21185;50.978;13.720;2023-03-20T14:53:16;8.15;;;4.20;;
34978;SDS011;21185;50.978;13.720;2023-03-20T15:03:38;9.35;;;3.90;;
34978;SDS011;21185;50.978;13.720;2023-03-20T15:08:49;8.27;;;4.20;;
34978;SDS011;21185;50.978;13.720;2023-03-20T15:13:54;7.70;;;3.63;;
34978;SDS011;21185;50.978;13.720;2023-03-20T15:18:59;5.05;;;2.80;;
34978;SDS011;21185;50.978;13.720;2023-03-20T15:24:01;5.80;;;3.03;;
34978;SDS011;21185;50.978;13.720;2023-03-20T15:29:05;5.55;;;2.35;;
34978;SDS011;21185;50.978;13.720;2023-03-20T15:34:14;6.45;;;2.97;;
34978;SDS011;21185;50.978;13.720;2023-03-20T15:39:23;4.03;;;2.38;;
34978;SDS011;21185;50.978;13.720;2023-03-20T15:44:33;7.30;;;2.67;;
34978;SDS011;21185;50.978;13.720;2023-03-20T15:49:39;4.95;;;2.70;;
34978;SDS011;21185;50.978;13.720;2023-03-20T15:54:42;6.07;;;2.47;;
34978;SDS011;21185;50.978;13.720;2023-03-20T15:59:44;5.18;;;1.83;;
34978;SDS011;21185;50.978;13.720;2023-03-20T16:04:48;5.43;;;2.47;;
34978;SDS011;21185;50.978;13.720;2023-03-20T16:09:52;5.47;;;2.72;;
34978;SDS011;21185;50.978;13.720;2023-03-20T16:14:54;5.05;;;2.63;;
34978;SDS011;21185;50.978;13.720;2023-03-20T16:19:58;5.28;;;3.15;;
34978;SDS011;21185;50.978;13.720;2023-03-20T16:25:01;5.82;;;3.13;;
34978;SDS011;21185;50.978;13.720;2023-03-20T16:30:04;4.13;;;2.70;;
34978;SDS011;21185;50.978;13.720;2023-03-20T16:35:20;5.82;;;2.88;;
34978;SDS011;21185;50.978;13.720;2023-03-20T16:45:29;4.85;;;2.35;;
34978;SDS011;21185;50.978;13.720;2023-03-20T16:50:34;6.95;;;2.97;;
34978;SDS011;21185;50.978;13.720;2023-03-20T16:55:43;4.05;;;2.67;;
34978;SDS011;21185;50.978;13.720;2023-03-20T17:05:56;10.27;;;3.47;;
34978;SDS011;21185;50.978;13.720;2023-03-20T17:11:04;7.32;;;3.40;;
34978;SDS011;21185;50.978;13.720;2023-03-20T17:16:16;9.05;;;3.63;;
34978;SDS011;21185;50.978;13.720;2023-03-20T17:21:20;8.32;;;3.72;;
34978;SDS011;21185;50.978;13.720;2023-03-20T17:26:22;6.28;;;3.13;;
34978;SDS011;21185;50.978;13.720;2023-03-20T17:31:25;7.50;;;3.25;;
34978;SDS011;21185;50.978;13.720;2023-03-20T17:36:29;7.72;;;3.30;;
34978;SDS011;21185;50.978;13.720;2023-03-20T17:41:32;5.47;;;2.63;;
34978;SDS011;21185;50.978;13.720;2023-03-20T17:46:34;15.18;;;3.92;;
34978;SDS011;21185;50.978;13.720;2023-03-20T17:51:56;6.43;;;3.13;;
34978;SDS011;21185;50.978;13.720;2023-03-20T17:56:58;12.68;;;2.55;;
34978;SDS011;21185;50.978;13.720;2023-03-20T18:01:59;5.25;;;2.35;;
34978;SDS011;21185;50.978;13.720;2023-03-20T18:07:01;4.97;;;2.55;;
34978;SDS011;21185;50.978;13.720;2023-03-20T18:12:05;6.97;;;3.08;;
34978;SDS011;21185;50.978;13.720;2023-03-20T18:17:11;6.07;;;3.40;;
34978;SDS011;21185;50.978;13.720;2023-03-20T18:22:14;7.47;;;3.55;;
34978;SDS011;21185;50.978;13.720;2023-03-20T18:27:16;6.95;;;2.88;;
34978;SDS011;21185;50.978;13.720;2023-03-20T18:32:17;6.38;;;2.92;;
34978;SDS011;21185;50.978;13.720;2023-03-20T18:37:19;5.75;;;2.70;;
34978;SDS011;21185;50.978;13.720;2023-03-20T18:42:22;7.72;;;2.88;;
34978;SDS011;21185;50.978;13.720;2023-03-20T18:47:24;8.50;;;3.38;;
34978;SDS011;21185;50.978;13.720;2023-03-20T18:52:26;5.93;;;3.33;;
34978;SDS011;21185;50.978;13.720;2023-03-20T18:57:28;6.28;;;3.03;;
34978;SDS011;21185;50.978;13.720;2023-03-20T19:02:30;7.30;;;3.13;;
34978;SDS011;21185;50.978;13.720;2023-03-20T19:07:32;7.10;;;3.60;;
34978;SDS011;21185;50.978;13.720;2023-03-20T19:12:34;9.23;;;3.75;;
34978;SDS011;21185;50.978;13.720;2023-03-20T19:17:37;8.70;;;4.22;;
34978;SDS011;21185;50.978;13.720;2023-03-20T19:22:39;7.93;;;4.03;;
34978;SDS011;21185;50.978;13.720;2023-03-20T19:27:43;12.45;;;4.65;;
34978;SDS011;21185;50.978;13.720;2023-03-20T19:32:46;8.77;;;4.28;;
34978;SDS011;21185;50.978;13.720;2023-03-20T19:37:48;8.05;;;3.85;;
34978;SDS011;21185;50.978;13.720;2023-03-20T19:42:50;7.78;;;4.53;;
34978;SDS011;21185;50.978;13.720;2023-03-20T19:48:05;9.77;;;4.55;;
34978;SDS011;21185;50.978;13.720;2023-03-20T19:53:19;10.48;;;4.72;;
34978;SDS011;21185;50.978;13.720;2023-03-20T19:58:25;11.93;;;4.88;;
34978;SDS011;21185;50.978;13.720;2023-03-20T20:03:27;11.55;;;4.90;;
34978;SDS011;21185;50.978;13.720;2023-03-20T20:08:29;16.23;;;4.65;;
34978;SDS011;21185;50.978;13.720;2023-03-20T20:13:48;13.15;;;4.90;;
34978;SDS011;21185;50.978;13.720;2023-03-20T20:19:10;8.10;;;4.18;;
34978;SDS011;21185;50.978;13.720;2023-03-20T20:24:12;11.93;;;5.00;;
34978;SDS011;21185;50.978;13.720;2023-03-20T20:29:16;13.52;;;5.97;;
34978;SDS011;21185;50.978;13.720;2023-03-20T20:34:19;12.57;;;5.93;;
34978;SDS011;21185;50.978;13.720;2023-03-20T20:39:42;10.38;;;5.22;;
34978;SDS011;21185;50.978;13.720;2023-03-20T20:44:46;10.55;;;5.75;;
34978;SDS011;21185;50.978;13.720;2023-03-20T20:49:48;9.57;;;5.28;;
34978;SDS011;21185;50.978;13.720;2023-03-20T20:54:50;13.95;;;5.18;;
34978;SDS011;21185;50.978;13.720;2023-03-20T20:59:51;10.10;;;5.00;;
34978;SDS011;21185;50.978;13.720;2023-03-20T21:05:00;10.82;;;5.30;;
34978;SDS011;21185;50.978;13.720;2023-03-20T21:10:03;14.57;;;5.97;;
34978;SDS011;21185;50.978;13.720;2023-03-20T21:15:06;11.65;;;5.47;;
34978;SDS011;21185;50.978;13.720;2023-03-20T21:20:09;15.35;;;5.47;;
34978;SDS011;21185;50.978;13.720;2023-03-20T21:25:12;11.35;;;6.55;;
34978;SDS011;21185;50.978;13.720;2023-03-20T21:35:21;10.80;;;5.22;;
34978;SDS011;21185;50.978;13.720;2023-03-20T21:40:26;12.40;;;5.38;;
34978;SDS011;21185;50.978;13.720;2023-03-20T21:45:29;11.07;;;5.32;;
34978;SDS011;21185;50.978;13.720;2023-03-20T21:50:51;8.27;;;4.85;;
34978;SDS011;21185;50.978;13.720;2023-03-20T21:56:13;10.88;;;5.47;;
34978;SDS011;21185;50.978;13.720;2023-03-20T22:01:35;8.35;;;4.32;;
34978;SDS011;21185;50.978;13.720;2023-03-20T22:06:57;10.68;;;5.57;;
34978;SDS011;21185;50.978;13.720;2023-03-20T22:12:20;11.43;;;4.90;;
34978;SDS011;21185;50.978;13.720;2023-03-20T22:17:42;8.65;;;4.47;;
34978;SDS011;21185;50.978;13.720;2023-03-20T22:23:04;13.55;;;5.35;;
34978;SDS011;21185;50.978;13.720;2023-03-20T22:28:26;8.82;;;4.43;;
34978;SDS011;21185;50.978;13.720;2023-03-20T22:33:49;10.50;;;4.47;;
34978;SDS011;21185;50.978;13.720;2023-03-20T22:39:12;8.00;;;4.32;;
34978;SDS011;21185;50.978;13.720;2023-03-20T22:44:34;11.15;;;4.60;;
34978;SDS011;21185;50.978;13.720;2023-03-20T22:49:56;13.93;;;4.35;;
34978;SDS011;21185;50.978;13.720;2023-03-20T22:54:59;8.13;;;3.70;;
34978;SDS011;21185;50.978;13.720;2023-03-20T23:00:00;11.48;;;4.68;;
34978;SDS011;21185;50.978;13.720;2023-03-20T23:05:03;10.02;;;4.22;;
34978;SDS011;21185;50.978;13.720;2023-03-20T23:10:05;8.85;;;4.05;;
34978;SDS011;21185;50.978;13.720;2023-03-20T23:15:10;9.73;;;3.88;;
34978;SDS011;21185;50.978;13.720;2023-03-20T23:20:12;11.45;;;5.28;;
34978;SDS011;21185;50.978;13.720;2023-03-20T23:25:20;11.23;;;4.47;;
34978;SDS011;21185;50.978;13.720;2023-03-20T23:30:38;11.38;;;4.60;;
34978;SDS011;21185;50.978;13.720;2023-03-20T23:36:00;9.80;;;4.68;;
34978;SDS011;21185;50.978;13.720;2023-03-20T23:41:17;8.32;;;4.28;;
34978;SDS011;21185;50.978;13.720;2023-03-20T23:46:19;17.40;;;5.55;;
34978;SDS011;21185;50.978;13.720;2023-03-20T23:51:21;12.38;;;5.28;;
34978;SDS011;21185;50.978;13.720;2023-03-20T23:56:23;11.35;;;4.40;;
